createdAt,value
2022-11-17T00:01:35.919Z,94941.95
2022-11-17T00:04:04.139Z,94946.30
2022-11-17T00:06:32.255Z,94947.63
2022-11-17T00:09:00.318Z,94950.98
2022-11-17T00:11:48.759Z,94953.64
2022-11-17T00:14:36.781Z,94952.13
2022-11-17T00:17:08.109Z,94946.24
2022-11-17T00:19:55.004Z,94938.47
2022-11-17T00:22:23.831Z,94945.11
2022-11-17T00:24:52.292Z,94946.70
2022-11-17T00:27:20.455Z,94948.94
2022-11-17T00:29:48.647Z,94952.42
2022-11-17T00:32:37.097Z,94955.13
2022-11-17T00:35:06.376Z,94961.10
2022-11-17T00:37:37.331Z,94964.98
2022-11-17T00:40:06.232Z,94966.86
2022-11-17T00:42:34.383Z,94968.85
2022-11-17T00:45:02.542Z,94971.31
2022-11-17T00:47:30.565Z,94971.48
2022-11-17T00:49:58.693Z,94971.44
2022-11-17T00:52:26.852Z,94966.70
2022-11-17T00:54:54.901Z,94962.39
2022-11-17T00:57:23.449Z,94964.52
2022-11-17T00:59:51.617Z,94961.56
2022-11-17T01:02:19.663Z,94955.92
2022-11-17T01:04:47.700Z,94959.55
2022-11-17T01:07:15.813Z,94944.99
2022-11-17T01:09:43.892Z,94940.77
2022-11-17T01:12:11.964Z,94942.77
2022-11-17T01:14:40.042Z,94937.19
2022-11-17T01:17:08.077Z,94931.42
2022-11-17T01:19:36.202Z,94933.46
2022-11-17T01:22:04.433Z,94936.58
2022-11-17T01:24:32.462Z,94939.93
2022-11-17T01:27:00.680Z,94939.11
2022-11-17T01:29:29.305Z,94937.46
2022-11-17T01:31:57.537Z,94936.08
2022-11-17T01:34:25.668Z,94930.41
2022-11-17T01:37:12.628Z,94932.48
2022-11-17T01:39:40.647Z,94928.70
2022-11-17T01:42:15.006Z,94929.10
2022-11-17T01:44:52.035Z,94935.71
2022-11-17T01:47:41.152Z,94933.73
2022-11-17T01:50:11.905Z,94928.95
2022-11-17T01:52:41.274Z,94938.36
2022-11-17T01:55:11.443Z,94938.05
2022-11-17T01:57:46.400Z,94931.91
2022-11-17T02:00:15.515Z,94928.64
2022-11-17T02:02:46.070Z,94922.20
2022-11-17T02:05:37.986Z,94927.41
2022-11-17T02:08:07.843Z,94932.75
2022-11-17T02:10:36.751Z,94935.95
2022-11-17T02:13:05.722Z,94932.25
2022-11-17T02:15:33.984Z,94931.89
2022-11-17T02:18:02.925Z,94928.33
2022-11-17T02:20:43.014Z,94929.05
2022-11-17T02:23:33.251Z,94929.13
2022-11-17T02:26:28.892Z,94919.51
2022-11-17T02:29:06.343Z,94911.92
2022-11-17T02:31:53.874Z,94910.70
2022-11-17T02:34:21.877Z,94912.59
2022-11-17T02:36:59.063Z,94912.86
2022-11-17T02:39:40.473Z,94910.48
2022-11-17T02:42:56.116Z,94904.34
2022-11-17T02:46:03.128Z,94905.73
2022-11-17T02:48:46.674Z,94902.75
2022-11-17T02:51:22.393Z,94903.89
2022-11-17T02:53:54.031Z,94907.65
2022-11-17T02:56:22.746Z,94907.83
2022-11-17T02:58:54.482Z,94911.39
2022-11-17T03:01:22.513Z,94918.67
2022-11-17T03:03:56.725Z,94918.58
2022-11-17T03:06:46.698Z,94916.83
2022-11-17T03:09:39.375Z,94924.52
2022-11-17T03:12:20.323Z,94924.43
2022-11-17T03:14:58.191Z,94930.85
2022-11-17T03:17:32.842Z,94933.40
2022-11-17T03:20:13.248Z,94927.42
2022-11-17T03:23:04.524Z,94927.27
2022-11-17T03:25:35.195Z,94934.42
2022-11-17T03:28:10.754Z,94933.96
2022-11-17T03:30:43.167Z,94928.13
2022-11-17T03:33:16.128Z,94922.01
2022-11-17T03:35:52.864Z,94925.88
2022-11-17T03:38:25.061Z,94926.19
2022-11-17T03:40:56.903Z,94926.16
2022-11-17T03:43:27.336Z,94927.48
2022-11-17T03:46:00.959Z,94932.59
2022-11-17T03:48:35.259Z,94930.06
2022-11-17T03:51:12.833Z,94932.09
2022-11-17T03:53:42.282Z,94930.23
2022-11-17T03:56:22.883Z,94923.15
2022-11-17T03:58:59.905Z,94922.02
2022-11-17T04:01:30.729Z,94927.06
2022-11-17T04:03:59.165Z,94924.94
2022-11-17T04:06:27.198Z,94924.27
2022-11-17T04:08:55.328Z,94928.54
2022-11-17T04:11:42.851Z,94927.00
2022-11-17T04:14:30.018Z,94919.48
2022-11-17T04:16:58.051Z,94921.90
2022-11-17T04:19:26.110Z,94922.95
2022-11-17T04:21:54.112Z,94924.94
2022-11-17T04:24:22.201Z,94922.86
2022-11-17T04:27:09.252Z,94924.76
2022-11-17T04:29:37.290Z,94930.33
2022-11-17T04:32:05.385Z,94929.65
2022-11-17T04:34:33.466Z,94930.52
2022-11-17T04:37:08.045Z,94928.64
2022-11-17T04:39:39.003Z,94932.40
2022-11-17T04:42:07.091Z,94927.55
2022-11-17T04:44:35.199Z,94928.75
2022-11-17T04:47:03.975Z,94926.86
2022-11-17T04:49:33.380Z,94927.40
2022-11-17T04:52:02.078Z,94934.80
2022-11-17T04:54:30.546Z,94930.82
2022-11-17T04:56:58.584Z,94925.96
2022-11-17T04:59:26.841Z,94922.50
2022-11-17T05:01:54.923Z,94926.43
2022-11-17T05:04:42.280Z,94930.66
2022-11-17T05:07:12.356Z,94936.72
2022-11-17T05:09:40.498Z,94938.27
2022-11-17T05:12:28.500Z,94945.48
2022-11-17T05:14:56.641Z,94943.17
2022-11-17T05:17:24.813Z,94944.96
2022-11-17T05:19:52.917Z,94944.71
2022-11-17T05:22:42.343Z,94937.43
2022-11-17T05:25:10.454Z,94942.08
2022-11-17T05:27:38.595Z,94938.77
2022-11-17T05:30:08.514Z,94942.65
2022-11-17T05:32:36.632Z,94944.38
2022-11-17T05:35:05.240Z,94948.73
2022-11-17T05:37:33.279Z,94953.88
2022-11-17T05:40:01.385Z,94957.17
2022-11-17T05:42:29.541Z,94951.77
2022-11-17T05:44:57.785Z,94953.20
2022-11-17T05:47:25.862Z,94950.31
2022-11-17T05:49:53.911Z,94945.80
2022-11-17T05:52:22.038Z,94945.15
2022-11-17T05:54:50.066Z,94947.88
2022-11-17T05:57:26.265Z,94943.33
2022-11-17T05:59:57.605Z,94944.73
2022-11-17T06:02:32.768Z,94951.77
2022-11-17T06:05:01.390Z,94956.83
2022-11-17T06:07:29.583Z,94964.03
2022-11-17T06:09:57.766Z,94971.30
2022-11-17T06:12:25.875Z,94980.98
2022-11-17T06:14:54.096Z,94984.02
2022-11-17T06:17:30.219Z,94982.64
2022-11-17T06:20:14.938Z,94988.58
2022-11-17T06:22:48.124Z,94991.80
2022-11-17T06:25:19.437Z,94992.25
2022-11-17T06:27:50.614Z,94996.31
2022-11-17T06:30:19.110Z,94996.65
2022-11-17T06:32:50.132Z,94999.05
2022-11-17T06:35:18.473Z,94998.42
2022-11-17T06:37:46.670Z,94998.02
2022-11-17T06:40:15.175Z,94997.00
2022-11-17T06:43:02.329Z,94999.77
2022-11-17T06:45:34.736Z,94996.96
2022-11-17T06:48:03.302Z,94995.67
2022-11-17T06:50:31.681Z,95000.36
2022-11-17T06:53:02.176Z,94999.25
2022-11-17T06:55:30.823Z,95001.63
2022-11-17T06:58:00.975Z,95000.98
2022-11-17T07:00:30.802Z,95006.09
2022-11-17T07:03:06.494Z,95006.06
2022-11-17T07:05:36.397Z,95005.45
2022-11-17T07:08:08.323Z,95002.44
2022-11-17T07:10:36.916Z,94999.73
2022-11-17T07:13:05.193Z,95002.98
2022-11-17T07:15:33.333Z,95007.27
2022-11-17T07:18:02.281Z,95010.89
2022-11-17T07:20:30.623Z,95011.39
2022-11-17T07:23:00.448Z,95007.27
2022-11-17T07:25:28.503Z,95006.20
2022-11-17T07:28:00.586Z,95009.63
2022-11-17T07:30:29.281Z,95009.08
2022-11-17T07:33:01.134Z,95009.98
2022-11-17T07:35:29.761Z,95008.87
2022-11-17T07:37:59.500Z,95012.04
2022-11-17T07:40:29.184Z,95016.98
2022-11-17T07:42:57.327Z,95020.93
2022-11-17T07:45:31.413Z,95026.97
2022-11-17T07:48:02.867Z,95027.02
2022-11-17T07:50:32.266Z,95025.73
2022-11-17T07:53:00.705Z,95027.20
2022-11-17T07:55:28.839Z,95028.25
2022-11-17T07:58:02.079Z,95029.93
2022-11-17T08:00:31.922Z,95033.25
2022-11-17T08:03:01.911Z,95036.94
2022-11-17T08:05:43.453Z,95035.27
2022-11-17T08:08:13.697Z,95030.98
2022-11-17T08:10:43.480Z,95023.56
2022-11-17T08:13:12.926Z,95016.34
2022-11-17T08:15:43.899Z,95015.55
2022-11-17T08:18:12.260Z,95017.42
2022-11-17T08:20:40.432Z,95024.81
2022-11-17T08:23:15.801Z,95022.50
2022-11-17T08:25:46.097Z,95020.61
2022-11-17T08:28:14.485Z,95021.77
2022-11-17T08:30:45.735Z,95019.02
2022-11-17T08:33:14.331Z,95018.55
2022-11-17T08:35:42.547Z,95023.18
2022-11-17T08:38:12.544Z,95021.55
2022-11-17T08:40:41.265Z,95021.83
2022-11-17T08:43:09.591Z,95024.13
2022-11-17T08:45:37.784Z,95026.50
2022-11-17T08:48:07.601Z,95028.51
2022-11-17T08:50:35.680Z,95032.23
2022-11-17T08:53:03.890Z,95033.82
2022-11-17T08:55:35.632Z,95041.69
2022-11-17T08:58:06.417Z,95045.80
2022-11-17T09:00:35.017Z,95048.26
2022-11-17T09:03:10.923Z,95048.40
2022-11-17T09:05:41.976Z,95046.70
2022-11-17T09:08:43.262Z,95042.02
2022-11-17T09:11:04.910Z,95034.42
2022-11-17T09:13:33.938Z,95032.42
2022-11-17T09:16:07.960Z,95025.91
2022-11-17T09:18:38.585Z,95028.59
2022-11-17T09:21:10.232Z,95027.06
2022-11-17T09:23:40.325Z,95029.84
2022-11-17T09:26:12.334Z,95035.41
2022-11-17T09:28:41.566Z,95038.13
2022-11-17T09:31:12.998Z,95040.41
2022-11-17T09:33:41.988Z,95043.81
2022-11-17T09:36:12.544Z,95041.68
2022-11-17T09:38:41.411Z,95045.08
2022-11-17T09:41:24.338Z,95050.95
2022-11-17T09:44:14.167Z,95051.64
2022-11-17T09:46:51.366Z,95052.13
2022-11-17T09:49:49.149Z,95050.82
2022-11-17T09:52:19.262Z,95052.00
2022-11-17T09:54:59.943Z,95052.10
2022-11-17T09:57:28.144Z,95045.63
2022-11-17T10:00:15.071Z,95041.77
2022-11-17T10:02:43.602Z,95042.66
2022-11-17T10:05:34.865Z,95046.04
2022-11-17T10:08:08.480Z,95043.57
2022-11-17T10:10:55.593Z,95037.77
2022-11-17T10:13:30.894Z,95038.27
2022-11-17T10:16:06.484Z,95043.35
2022-11-17T10:18:38.577Z,95045.86
2022-11-17T10:21:09.417Z,95045.89
2022-11-17T10:23:46.179Z,95043.81
2022-11-17T10:26:16.212Z,95038.22
2022-11-17T10:28:44.531Z,95034.81
2022-11-17T10:31:19.204Z,95031.77
2022-11-17T10:33:51.051Z,95036.23
2022-11-17T10:36:32.914Z,95034.20
2022-11-17T10:39:01.406Z,95034.36
2022-11-17T10:41:41.069Z,95035.44
2022-11-17T10:44:26.185Z,95038.89
2022-11-17T10:47:02.644Z,95042.59
2022-11-17T10:49:35.212Z,95047.58
2022-11-17T10:52:09.365Z,95049.67
2022-11-17T10:54:38.494Z,95044.92
2022-11-17T10:57:17.645Z,95044.20
2022-11-17T10:59:56.885Z,95040.86
2022-11-17T11:02:31.822Z,95038.92
2022-11-17T11:05:05.975Z,95033.07
2022-11-17T11:07:34.196Z,95032.69
2022-11-17T11:10:33.537Z,95044.08
2022-11-17T11:13:57.469Z,95053.27
2022-11-17T11:16:29.155Z,95049.48
2022-11-17T11:18:58.093Z,95041.30
2022-11-17T11:21:35.377Z,95043.51
2022-11-17T11:24:18.170Z,95044.56
2022-11-17T11:26:57.072Z,95042.71
2022-11-17T11:30:10.156Z,95040.21
2022-11-17T11:32:53.621Z,95046.09
2022-11-17T11:35:44.149Z,95046.75
2022-11-17T11:38:21.108Z,95048.23
2022-11-17T11:41:10.937Z,95055.48
2022-11-17T11:44:03.942Z,95060.54
2022-11-17T11:46:34.817Z,95057.88
2022-11-17T11:49:18.752Z,95059.58
2022-11-17T11:51:50.458Z,95051.73
2022-11-17T11:54:33.069Z,95050.66
2022-11-17T11:57:02.389Z,95045.67
2022-11-17T11:59:50.449Z,95046.41
2022-11-17T12:02:33.127Z,95048.61
2022-11-17T12:05:19.255Z,95051.09
2022-11-17T12:07:56.777Z,95048.52
2022-11-17T12:10:34.368Z,95042.03
2022-11-17T12:13:04.632Z,95039.40
2022-11-17T12:15:35.545Z,95032.31
2022-11-17T12:18:14.155Z,95030.48
2022-11-17T12:20:42.873Z,95038.02
2022-11-17T12:23:19.888Z,95042.85
2022-11-17T12:25:54.579Z,95045.61
2022-11-17T12:28:30.579Z,95050.45
2022-11-17T12:31:08.248Z,95048.65
2022-11-17T12:33:54.571Z,95051.20
2022-11-17T12:36:30.890Z,95053.63
2022-11-17T12:39:01.352Z,95051.08
2022-11-17T12:41:47.521Z,95046.62
2022-11-17T12:44:34.224Z,95058.13
2022-11-17T12:47:17.234Z,95064.11
2022-11-17T12:50:18.156Z,95065.27
2022-11-17T12:52:58.530Z,95063.81
2022-11-17T12:55:29.061Z,95059.79
2022-11-17T12:58:10.607Z,95059.75
2022-11-17T13:00:48.279Z,95056.75
2022-11-17T13:03:22.484Z,95061.10
2022-11-17T13:06:39.787Z,95059.04
2022-11-17T13:09:03.177Z,95069.67
2022-11-17T13:11:31.354Z,95075.30
2022-11-17T13:14:16.033Z,95077.17
2022-11-17T13:16:48.673Z,95078.53
2022-11-17T13:19:38.475Z,95085.29
2022-11-17T13:22:16.644Z,95085.92
2022-11-17T13:24:50.027Z,95080.40
2022-11-17T13:27:29.827Z,95077.98
2022-11-17T13:30:15.489Z,95088.56
2022-11-17T13:32:43.804Z,95095.67
2022-11-17T13:35:30.678Z,95094.61
2022-11-17T13:38:05.014Z,95098.34
2022-11-17T13:40:35.575Z,95100.06
2022-11-17T13:43:06.182Z,95101.45
2022-11-17T13:45:34.281Z,95097.05
2022-11-17T13:48:02.469Z,95090.70
2022-11-17T13:50:31.063Z,95086.60
2022-11-17T13:53:11.631Z,95084.25
2022-11-17T13:55:47.209Z,95078.15
2022-11-17T13:58:26.771Z,95078.27
2022-11-17T14:00:58.477Z,95085.08
2022-11-17T14:03:46.817Z,95083.95
2022-11-17T14:06:14.943Z,95074.28
2022-11-17T14:09:02.570Z,95069.80
2022-11-17T14:11:31.051Z,95071.58
2022-11-17T14:14:01.493Z,95076.93
2022-11-17T14:16:39.674Z,95077.88
2022-11-17T14:19:10.889Z,95075.30
2022-11-17T14:21:59.580Z,95074.31
2022-11-17T14:24:28.571Z,95069.23
2022-11-17T14:26:57.261Z,95071.59
2022-11-17T14:29:26.324Z,95072.67
2022-11-17T14:31:55.673Z,95079.80
2022-11-17T14:34:24.337Z,95077.17
2022-11-17T14:36:54.717Z,95078.89
2022-11-17T14:39:23.136Z,95071.45
2022-11-17T14:41:51.636Z,95065.23
2022-11-17T14:44:23.435Z,95063.08
2022-11-17T14:46:51.711Z,95057.16
2022-11-17T14:49:19.799Z,95061.08
2022-11-17T14:51:51.112Z,95061.71
2022-11-17T14:54:20.769Z,95058.52
2022-11-17T14:56:49.003Z,95062.38
2022-11-17T14:59:20.927Z,95068.08
2022-11-17T15:01:49.734Z,95072.65
2022-11-17T15:07:07.735Z,95074.64
2022-11-17T15:09:35.804Z,95066.70
2022-11-17T15:12:04.037Z,95059.15
2022-11-17T15:14:32.629Z,95054.35
2022-11-17T15:17:00.750Z,95048.23
2022-11-17T15:19:29.072Z,95043.73
2022-11-17T15:21:57.690Z,95036.79
2022-11-17T15:24:25.807Z,95034.41
2022-11-17T15:26:53.945Z,95031.52
2022-11-17T15:29:22.090Z,95032.36
2022-11-17T15:31:50.393Z,95029.27
2022-11-17T15:34:20.346Z,95025.89
2022-11-17T15:36:49.391Z,95023.77
2022-11-17T15:39:18.241Z,95026.37
2022-11-17T15:41:47.494Z,95025.85
2022-11-17T15:44:15.808Z,95029.19
2022-11-17T15:46:47.429Z,95027.91
2022-11-17T15:49:16.345Z,95032.47
2022-11-17T15:51:44.666Z,95035.05
2022-11-17T15:54:18.581Z,95038.85
2022-11-17T15:56:49.120Z,95040.52
2022-11-17T15:59:18.413Z,95039.06
2022-11-17T16:01:47.060Z,95035.55
2022-11-17T16:04:16.119Z,95038.89
2022-11-17T16:06:46.717Z,95037.21
2022-11-17T16:09:15.886Z,95030.46
2022-11-17T16:11:44.498Z,95025.14
2022-11-17T16:14:12.717Z,95015.23
2022-11-17T16:16:40.986Z,95014.30
2022-11-17T16:19:09.399Z,95009.88
2022-11-17T16:21:37.500Z,95011.80
2022-11-17T16:24:08.162Z,95006.37
2022-11-17T16:26:36.692Z,95005.70
2022-11-17T16:29:08.038Z,95005.64
2022-11-17T16:31:36.867Z,95005.83
2022-11-17T16:34:13.576Z,95005.03
2022-11-17T16:36:43.495Z,95000.70
2022-11-17T16:39:15.679Z,94999.16
2022-11-17T16:41:50.244Z,95001.08
2022-11-17T16:44:19.582Z,95007.88
2022-11-17T16:46:49.962Z,95009.43
2022-11-17T16:49:19.823Z,95015.80
2022-11-17T16:51:52.616Z,95014.88
2022-11-17T16:54:21.147Z,95020.39
2022-11-17T16:56:49.419Z,95019.48
2022-11-17T16:59:17.761Z,95022.27
2022-11-17T17:01:46.177Z,95025.02
2022-11-17T17:04:14.338Z,95031.70
2022-11-17T17:06:45.743Z,95033.23
2022-11-17T17:09:23.363Z,95033.52
2022-11-17T17:11:56.130Z,95039.55
2022-11-17T17:14:24.536Z,95046.61
2022-11-17T17:16:52.972Z,95051.46
2022-11-17T17:19:21.063Z,95055.05
2022-11-17T17:21:49.347Z,95058.42
2022-11-17T17:24:18.096Z,95064.61
2022-11-17T17:26:46.268Z,95062.20
2022-11-17T17:29:14.900Z,95053.20
2022-11-17T17:31:44.003Z,95046.89
2022-11-17T17:34:13.196Z,95045.13
2022-11-17T17:36:45.158Z,95051.36
2022-11-17T17:39:15.816Z,95047.35
2022-11-17T17:41:44.812Z,95046.02
2022-11-17T17:44:18.285Z,95042.03
2022-11-17T17:46:47.085Z,95038.71
2022-11-17T17:49:16.190Z,95034.53
2022-11-17T17:51:44.877Z,95031.14
2022-11-17T17:54:18.787Z,95028.35
2022-11-17T17:56:48.091Z,95027.83
2022-11-17T17:59:17.105Z,95027.86
2022-11-17T18:01:47.753Z,95026.21
2022-11-17T18:04:16.987Z,95033.24
2022-11-17T18:06:48.442Z,95033.48
2022-11-17T18:09:20.843Z,95036.56
2022-11-17T18:11:50.487Z,95034.45
2022-11-17T18:14:24.495Z,95038.13
2022-11-17T18:16:53.610Z,95037.36
2022-11-17T18:19:22.598Z,95037.21
2022-11-17T18:21:52.231Z,95035.91
2022-11-17T18:24:20.275Z,95034.09
2022-11-17T18:26:48.457Z,95032.27
2022-11-17T18:29:20.691Z,95031.04
2022-11-17T18:31:49.627Z,95026.94
2022-11-17T18:34:19.237Z,95024.91
2022-11-17T18:36:48.669Z,95025.03
2022-11-17T18:39:17.400Z,95025.11
2022-11-17T18:41:45.809Z,95024.68
2022-11-17T18:44:15.305Z,95019.75
2022-11-17T18:46:44.666Z,95016.55
2022-11-17T18:49:12.799Z,95016.48
2022-11-17T18:51:40.965Z,95014.36
2022-11-17T18:54:12.023Z,95005.23
2022-11-17T18:56:40.893Z,95001.13
2022-11-17T18:59:12.377Z,94993.69
2022-11-17T19:01:43.112Z,94988.05
2022-11-17T19:04:15.097Z,94980.95
2022-11-17T19:06:43.293Z,94983.60
2022-11-17T19:09:12.125Z,94983.67
2022-11-17T19:11:40.396Z,94989.67
2022-11-17T19:14:08.582Z,94982.42
2022-11-17T19:16:44.379Z,94974.63
2022-11-17T19:19:14.257Z,94974.30
2022-11-17T19:21:43.342Z,94977.23
2022-11-17T19:24:12.020Z,94974.55
2022-11-17T19:26:40.247Z,94971.40
2022-11-17T19:29:16.734Z,94964.48
2022-11-17T19:31:47.586Z,94965.30
2022-11-17T19:34:16.026Z,94963.21
2022-11-17T19:36:44.997Z,94963.42
2022-11-17T19:39:14.897Z,94964.64
2022-11-17T19:41:45.396Z,94965.01
2022-11-17T19:44:13.753Z,94970.80
2022-11-17T19:46:42.748Z,94977.75
2022-11-17T19:49:12.091Z,94990.66
2022-11-17T19:51:41.461Z,94989.99
2022-11-17T19:54:12.528Z,95004.29
2022-11-17T19:56:40.658Z,95005.19
2022-11-17T19:59:15.282Z,95005.19
2022-11-17T20:01:45.526Z,94999.38
2022-11-17T20:04:14.542Z,94994.17
2022-11-17T20:06:42.853Z,94989.59
2022-11-17T20:09:15.032Z,94989.94
2022-11-17T20:11:43.745Z,94992.03
2022-11-17T20:14:12.982Z,94999.34
2022-11-17T20:16:42.621Z,95002.36
2022-11-17T20:19:11.517Z,95004.61
2022-11-17T20:21:39.958Z,95004.73
2022-11-17T20:24:09.519Z,95006.10
2022-11-17T20:26:40.739Z,94999.95
2022-11-17T20:29:09.021Z,95000.42
2022-11-17T20:31:37.221Z,95000.39
2022-11-17T20:34:06.044Z,95005.82
2022-11-17T20:36:35.121Z,95006.77
2022-11-17T20:39:06.279Z,95009.39
2022-11-17T20:41:34.894Z,95004.55
2022-11-17T20:44:03.563Z,95007.08
2022-11-17T20:46:32.051Z,94999.23
2022-11-17T20:49:00.244Z,94998.83
2022-11-17T20:51:28.546Z,94995.81
2022-11-17T20:53:56.744Z,94994.67
2022-11-17T20:56:25.722Z,94989.18
2022-11-17T20:58:54.837Z,94986.94
2022-11-17T21:01:26.103Z,94975.26
2022-11-17T21:03:54.447Z,94975.33
2022-11-17T21:06:25.439Z,94974.80
2022-11-17T21:08:53.526Z,94978.03
2022-11-17T21:11:42.715Z,94979.23
2022-11-17T21:14:13.145Z,94972.44
2022-11-17T21:16:45.729Z,94967.13
2022-11-17T21:19:15.570Z,94960.71
2022-11-17T21:21:45.310Z,94953.02
2022-11-17T21:24:13.720Z,94950.21
2022-11-17T21:26:42.077Z,94943.72
2022-11-17T21:29:11.388Z,94939.60
2022-11-17T21:31:39.716Z,94937.20
2022-11-17T21:34:14.626Z,94933.45
2022-11-17T21:36:43.000Z,94932.50
2022-11-17T21:39:18.158Z,94921.99
2022-11-17T21:41:47.083Z,94923.66
2022-11-17T21:44:15.296Z,94925.90
2022-11-17T21:46:43.347Z,94923.89
2022-11-17T21:49:11.487Z,94922.11
2022-11-17T21:51:39.760Z,94919.77
2022-11-17T21:54:10.133Z,94914.61
2022-11-17T21:56:38.325Z,94911.38
2022-11-17T21:59:11.488Z,94909.00
2022-11-17T22:01:40.097Z,94907.05
2022-11-17T22:04:08.774Z,94912.23
2022-11-17T22:06:38.113Z,94910.20
2022-11-17T22:09:06.302Z,94907.98
2022-11-17T22:11:38.766Z,94902.00
2022-11-17T22:14:18.316Z,94898.70
2022-11-17T22:16:49.570Z,94898.19
2022-11-17T22:19:19.450Z,94896.55
2022-11-17T22:21:50.113Z,94898.66
2022-11-17T22:24:18.628Z,94895.73
2022-11-17T22:26:47.537Z,94893.31
2022-11-17T22:29:18.739Z,94900.95
2022-11-17T22:31:48.836Z,94904.88
2022-11-17T22:34:18.194Z,94906.86
2022-11-17T22:36:47.563Z,94904.80
2022-11-17T22:39:16.704Z,94903.77
2022-11-17T22:41:46.231Z,94906.34
2022-11-17T22:44:16.042Z,94904.11
2022-11-17T22:46:44.267Z,94905.35
2022-11-17T22:49:12.796Z,94903.02
2022-11-17T22:51:59.791Z,94901.23
2022-11-17T22:54:28.070Z,94892.52
2022-11-17T22:56:57.812Z,94892.39
2022-11-17T22:59:27.613Z,94887.38
2022-11-17T23:01:56.302Z,94887.14
2022-11-17T23:04:24.377Z,94886.77
2022-11-17T23:06:52.603Z,94885.05
2022-11-17T23:09:20.789Z,94881.35
2022-11-17T23:11:49.591Z,94872.86
2022-11-17T23:14:17.834Z,94871.98
2022-11-17T23:16:45.978Z,94869.98
2022-11-17T23:19:14.777Z,94869.50
2022-11-17T23:21:42.978Z,94865.77
2022-11-17T23:24:13.146Z,94868.00
2022-11-17T23:26:42.705Z,94863.27
2022-11-17T23:29:10.984Z,94861.20
2022-11-17T23:31:39.599Z,94859.75
2022-11-17T23:34:11.058Z,94860.40
2022-11-17T23:36:39.614Z,94856.52
2022-11-17T23:39:07.917Z,94858.18
2022-11-17T23:41:36.070Z,94860.62
2022-11-17T23:44:04.413Z,94857.05
2022-11-17T23:46:32.601Z,94852.80
2022-11-17T23:49:00.766Z,94848.05
2022-11-17T23:51:30.128Z,94849.38
2022-11-17T23:54:00.302Z,94847.19
2022-11-17T23:56:32.350Z,94842.94
2022-11-17T23:59:00.521Z,94840.23
